createdAt,value
2017-09-11T00:00:54.004Z,95.9
2017-09-11T00:01:55.404Z,95.2
2017-09-11T00:02:56.823Z,95.4
2017-09-11T00:03:58.220Z,95.3
2017-09-11T00:05:00.399Z,95.2
2017-09-11T00:06:01.052Z,95.5
2017-09-11T00:07:02.448Z,95.4
2017-09-11T00:08:03.845Z,95.0
2017-09-11T00:09:05.262Z,93.8
2017-09-11T00:10:06.658Z,95.0
2017-09-11T00:11:08.144Z,94.7
2017-09-11T00:12:09.540Z,95.6
2017-09-11T00:13:11.022Z,95.2
2017-09-11T00:14:12.421Z,95.6
2017-09-11T00:15:13.825Z,95.9
2017-09-11T00:16:15.242Z,96.1
2017-09-11T00:17:16.643Z,95.6
2017-09-11T00:18:18.125Z,95.9
2017-09-11T00:19:19.525Z,95.4
2017-09-11T00:20:21.003Z,95.3
2017-09-11T00:21:22.401Z,95.9
2017-09-11T00:22:23.884Z,96.1
2017-09-11T00:23:25.282Z,95.9
2017-09-11T00:24:26.680Z,95.4
2017-09-11T00:25:28.081Z,95.8
2017-09-11T00:26:29.485Z,95.8
2017-09-11T00:27:30.984Z,95.8
2017-09-11T00:28:32.384Z,96.0
2017-09-11T00:29:33.782Z,96.7
2017-09-11T00:30:35.213Z,96.8
2017-09-11T00:31:36.630Z,96.3
2017-09-11T00:32:38.032Z,96.8
2017-09-11T00:33:39.436Z,95.9
2017-09-11T00:34:40.838Z,95.8
2017-09-11T00:35:42.306Z,96.2
2017-09-11T00:36:43.702Z,96.8
2017-09-11T00:37:45.182Z,96.6
2017-09-11T00:38:46.584Z,96.5
2017-09-11T00:39:48.062Z,96.4
2017-09-11T00:40:49.464Z,94.4
2017-09-11T00:41:50.943Z,95.0
2017-09-11T00:42:52.347Z,95.5
2017-09-11T00:44:03.309Z,95.6
2017-09-11T00:45:02.966Z,95.8
2017-09-11T00:46:04.373Z,95.5
2017-09-11T00:47:05.774Z,94.1
2017-09-11T00:48:07.265Z,94.5
2017-09-11T00:49:08.660Z,95.4
2017-09-11T00:50:10.058Z,95.5
2017-09-11T00:51:11.488Z,96.1
2017-09-11T00:52:12.890Z,96.0
2017-09-11T00:53:14.286Z,95.8
2017-09-11T00:54:15.707Z,96.4
2017-09-11T00:55:17.107Z,96.6
2017-09-11T00:56:18.505Z,96.4
2017-09-11T00:57:19.921Z,96.6
2017-09-11T00:58:21.323Z,96.8
2017-09-11T00:59:22.716Z,96.7
2017-09-11T01:00:24.143Z,96.8
2017-09-11T01:01:25.538Z,96.8
2017-09-11T01:02:27.314Z,96.8
2017-09-11T01:03:28.769Z,95.6
2017-09-11T01:04:30.166Z,96.7
2017-09-11T01:05:31.569Z,97.0
2017-09-11T01:06:32.986Z,96.4
2017-09-11T01:07:34.387Z,95.6
2017-09-11T01:08:35.868Z,96.4
2017-09-11T01:09:37.275Z,95.8
2017-09-11T01:10:38.670Z,95.9
2017-09-11T01:11:40.088Z,95.6
2017-09-11T01:12:41.482Z,95.6
2017-09-11T01:13:42.879Z,95.3
2017-09-11T01:14:44.305Z,95.6
2017-09-11T01:15:45.704Z,95.3
2017-09-11T01:16:47.103Z,95.6
2017-09-11T01:17:48.507Z,95.9
2017-09-11T01:18:49.966Z,96.0
2017-09-11T01:19:51.374Z,96.0
2017-09-11T01:20:52.759Z,96.5
2017-09-11T01:21:54.209Z,96.6
2017-09-11T01:22:55.612Z,96.4
2017-09-11T01:23:57.017Z,96.1
2017-09-11T01:24:58.522Z,96.5
2017-09-11T01:25:59.920Z,96.2
2017-09-11T01:27:01.406Z,96.2
2017-09-11T01:28:04.325Z,97.1
2017-09-11T01:29:05.724Z,97.4
2017-09-11T01:30:07.125Z,97.8
2017-09-11T01:31:08.581Z,97.9
2017-09-11T01:32:09.979Z,97.8
2017-09-11T01:33:11.378Z,98.3
2017-09-11T01:34:12.780Z,98.8
2017-09-11T01:35:14.242Z,98.5
2017-09-11T01:36:15.640Z,99.1
2017-09-11T01:37:17.038Z,98.3
2017-09-11T01:38:18.457Z,98.7
2017-09-11T01:39:19.879Z,99.2
2017-09-11T01:40:21.279Z,99.0
2017-09-11T01:41:22.782Z,99.6
2017-09-11T01:42:24.180Z,99.3
2017-09-11T01:43:25.664Z,100.0
2017-09-11T01:44:27.062Z,100.0
2017-09-11T01:45:28.538Z,99.7
2017-09-11T01:46:29.941Z,100.0
2017-09-11T01:47:31.338Z,100.0
2017-09-11T01:48:32.758Z,100.0
2017-09-11T01:49:34.159Z,100.0
2017-09-11T01:50:35.556Z,100.0
2017-09-11T01:51:36.977Z,100.0
2017-09-11T01:52:38.382Z,100.0
2017-09-11T01:53:39.859Z,100.0
2017-09-11T01:54:41.258Z,100.0
2017-09-11T01:55:42.738Z,100.0
2017-09-11T01:56:44.168Z,100.0
2017-09-11T01:57:45.618Z,100.0
2017-09-11T01:58:47.019Z,100.0
2017-09-11T01:59:48.500Z,100.0
2017-09-11T02:00:49.899Z,100.0
2017-09-11T02:01:51.405Z,100.0
2017-09-11T02:02:52.817Z,100.0
2017-09-11T02:03:54.262Z,100.0
2017-09-11T02:04:55.661Z,100.0
2017-09-11T02:05:57.071Z,100.0
2017-09-11T02:06:58.582Z,100.0
2017-09-11T02:08:00.385Z,100.0
2017-09-11T02:09:01.784Z,100.0
2017-09-11T02:10:03.319Z,100.0
2017-09-11T02:11:04.713Z,100.0
2017-09-11T02:12:06.201Z,100.0
2017-09-11T02:13:07.603Z,100.0
2017-09-11T02:14:09.074Z,100.0
2017-09-11T02:15:10.474Z,100.0
2017-09-11T02:16:11.954Z,100.0
2017-09-11T02:17:13.361Z,100.0
2017-09-11T02:18:14.837Z,100.0
2017-09-11T02:19:16.233Z,100.0
2017-09-11T02:20:17.714Z,100.0
2017-09-11T02:21:19.118Z,100.0
2017-09-11T02:22:20.519Z,100.0
2017-09-11T02:23:22.051Z,100.0
2017-09-11T02:24:23.451Z,100.0
2017-09-11T02:25:24.848Z,100.0
2017-09-11T02:26:26.359Z,100.0
2017-09-11T02:27:27.759Z,100.0
2017-09-11T02:28:29.162Z,100.0
2017-09-11T02:29:30.681Z,100.0
2017-09-11T02:30:32.081Z,100.0
2017-09-11T02:31:33.481Z,100.0
2017-09-11T02:32:35.002Z,100.0
2017-09-11T02:33:36.401Z,100.0
2017-09-11T02:34:37.893Z,100.0
2017-09-11T02:35:39.295Z,100.0
2017-09-11T02:36:40.763Z,100.0
2017-09-11T02:37:42.161Z,100.0
2017-09-11T02:38:43.642Z,100.0
2017-09-11T02:39:45.041Z,100.0
2017-09-11T02:40:46.526Z,100.0
2017-09-11T02:41:47.893Z,100.0
2017-09-11T02:42:49.424Z,100.0
2017-09-11T02:43:50.834Z,100.0
2017-09-11T02:44:52.279Z,100.0
2017-09-11T02:45:53.690Z,100.0
2017-09-11T02:46:55.165Z,100.0
2017-09-11T02:47:56.566Z,100.0
2017-09-11T02:48:58.045Z,100.0
2017-09-11T02:49:59.453Z,100.0
2017-09-11T02:51:00.926Z,100.0
2017-09-11T02:52:02.325Z,100.0
2017-09-11T02:53:03.730Z,100.0
2017-09-11T02:54:05.635Z,100.0
2017-09-11T02:55:07.037Z,100.0
2017-09-11T02:56:08.439Z,100.0
2017-09-11T02:57:09.977Z,100.0
2017-09-11T02:58:12.344Z,100.0
2017-09-11T02:59:14.348Z,100.0
2017-09-11T03:00:16.364Z,100.0
2017-09-11T03:01:18.378Z,100.0
2017-09-11T03:02:20.370Z,100.0
2017-09-11T03:03:21.795Z,100.0
2017-09-11T03:04:23.194Z,100.0
2017-09-11T03:05:24.679Z,100.0
2017-09-11T03:06:26.097Z,100.0
2017-09-11T03:07:27.496Z,100.0
2017-09-11T03:08:29.203Z,100.0
2017-09-11T03:09:30.607Z,100.0
2017-09-11T03:10:32.010Z,100.0
2017-09-11T03:11:33.418Z,100.0
2017-09-11T03:12:34.963Z,100.0
2017-09-11T03:13:36.359Z,100.0
2017-09-11T03:14:37.759Z,100.0
2017-09-11T03:15:39.283Z,100.0
2017-09-11T03:16:40.683Z,100.0
2017-09-11T03:17:42.088Z,100.0
2017-09-11T03:18:43.502Z,100.0
2017-09-11T03:19:44.900Z,100.0
2017-09-11T03:20:46.300Z,100.0
2017-09-11T03:21:47.721Z,100.0
2017-09-11T03:22:49.118Z,100.0
2017-09-11T03:23:50.603Z,100.0
2017-09-11T03:24:52.009Z,100.0
2017-09-11T03:25:54.508Z,100.0
2017-09-11T03:26:55.907Z,100.0
2017-09-11T03:27:57.308Z,100.0
2017-09-11T03:28:58.724Z,100.0
2017-09-11T03:30:00.128Z,100.0
2017-09-11T03:31:01.531Z,100.0
2017-09-11T03:32:02.944Z,100.0
2017-09-11T03:33:04.353Z,100.0
2017-09-11T03:34:05.757Z,100.0
2017-09-11T03:35:07.157Z,100.0
2017-09-11T03:36:08.604Z,100.0
2017-09-11T03:37:10.004Z,100.0
2017-09-11T03:38:11.483Z,100.0
2017-09-11T03:39:12.885Z,100.0
2017-09-11T03:40:14.290Z,100.0
2017-09-11T03:41:15.912Z,100.0
2017-09-11T03:42:17.308Z,100.0
2017-09-11T03:43:18.732Z,100.0
2017-09-11T03:44:20.436Z,100.0
2017-09-11T03:45:21.836Z,100.0
2017-09-11T03:46:23.244Z,100.0
2017-09-11T03:47:24.773Z,100.0
2017-09-11T03:48:26.172Z,100.0
2017-09-11T03:49:27.846Z,100.0
2017-09-11T03:50:29.244Z,100.0
2017-09-11T03:51:30.647Z,100.0
2017-09-11T03:52:32.161Z,100.0
2017-09-11T03:53:33.566Z,100.0
2017-09-11T03:54:34.963Z,100.0
2017-09-11T03:55:36.368Z,100.0
2017-09-11T03:56:37.925Z,100.0
2017-09-11T03:57:39.322Z,100.0
2017-09-11T03:58:40.718Z,100.0
2017-09-11T03:59:42.244Z,100.0
2017-09-11T04:00:43.657Z,100.0
2017-09-11T04:01:45.052Z,100.0
2017-09-11T04:02:46.569Z,100.0
2017-09-11T04:03:47.968Z,100.0
2017-09-11T04:04:49.650Z,100.0
2017-09-11T04:05:51.048Z,100.0
2017-09-11T04:06:52.750Z,100.0
2017-09-11T04:07:54.152Z,100.0
2017-09-11T04:08:55.552Z,100.0
2017-09-11T04:09:57.262Z,100.0
2017-09-11T04:10:58.658Z,100.0
2017-09-11T04:12:00.247Z,100.0
2017-09-11T04:13:02.373Z,100.0
2017-09-11T04:14:04.172Z,100.0
2017-09-11T04:15:05.592Z,100.0
2017-09-11T04:16:06.994Z,100.0
2017-09-11T04:17:08.477Z,100.0
2017-09-11T04:18:09.872Z,100.0
2017-09-11T04:19:11.731Z,100.0
2017-09-11T04:20:13.128Z,100.0
2017-09-11T04:21:14.746Z,100.0
2017-09-11T04:22:16.143Z,100.0
2017-09-11T04:23:17.862Z,100.0
2017-09-11T04:24:19.257Z,100.0
2017-09-11T04:25:20.912Z,100.0
2017-09-11T04:26:22.332Z,100.0
2017-09-11T04:27:24.002Z,100.0
2017-09-11T04:28:25.577Z,100.0
2017-09-11T04:29:27.091Z,100.0
2017-09-11T04:30:28.502Z,100.0
2017-09-11T04:31:29.966Z,100.0
2017-09-11T04:32:31.367Z,100.0
2017-09-11T04:33:32.763Z,100.0
2017-09-11T04:34:34.166Z,100.0
2017-09-11T04:35:36.065Z,100.0
2017-09-11T04:36:37.463Z,100.0
2017-09-11T04:37:38.872Z,100.0
2017-09-11T04:38:44.643Z,100.0
2017-09-11T04:39:44.003Z,100.0
2017-09-11T04:40:49.902Z,100.0
2017-09-11T04:41:52.776Z,100.0
2017-09-11T04:42:55.947Z,100.0
2017-09-11T04:43:57.347Z,100.0
2017-09-11T04:44:59.893Z,100.0
2017-09-11T04:46:01.884Z,100.0
2017-09-11T04:47:03.348Z,100.0
2017-09-11T04:48:04.748Z,100.0
2017-09-11T04:49:06.228Z,100.0
2017-09-11T04:50:07.635Z,100.0
2017-09-11T04:51:11.213Z,100.0
2017-09-11T04:52:13.382Z,100.0
2017-09-11T04:53:16.383Z,100.0
2017-09-11T04:54:17.781Z,100.0
2017-09-11T04:55:19.185Z,100.0
2017-09-11T04:56:20.613Z,100.0
2017-09-11T04:57:22.009Z,100.0
2017-09-11T04:58:23.493Z,100.0
2017-09-11T04:59:24.895Z,100.0
2017-09-11T05:00:26.371Z,100.0
2017-09-11T05:01:27.771Z,100.0
2017-09-11T05:02:29.253Z,100.0
2017-09-11T05:03:30.657Z,100.0
2017-09-11T05:04:32.058Z,100.0
2017-09-11T05:05:33.463Z,100.0
2017-09-11T05:06:34.914Z,100.0
2017-09-11T05:07:36.334Z,100.0
2017-09-11T05:08:37.744Z,100.0
2017-09-11T05:09:39.234Z,100.0
2017-09-11T05:10:40.637Z,100.0
2017-09-11T05:11:42.115Z,100.0
2017-09-11T05:12:43.519Z,100.0
2017-09-11T05:13:44.996Z,100.0
2017-09-11T05:14:46.396Z,100.0
2017-09-11T05:15:47.877Z,100.0
2017-09-11T05:16:49.295Z,100.0
2017-09-11T05:17:50.706Z,100.0
2017-09-11T05:18:52.224Z,100.0
2017-09-11T05:19:53.625Z,100.0
2017-09-11T05:20:55.071Z,100.0
2017-09-11T05:21:56.526Z,100.0
2017-09-11T05:22:57.920Z,100.0
2017-09-11T05:23:59.324Z,100.0
2017-09-11T05:25:00.741Z,100.0
2017-09-11T05:26:02.143Z,100.0
2017-09-11T05:27:03.545Z,100.0
2017-09-11T05:28:05.058Z,100.0
2017-09-11T05:29:06.466Z,100.0
2017-09-11T05:30:07.943Z,100.0
2017-09-11T05:31:09.348Z,100.0
2017-09-11T05:32:10.821Z,100.0
2017-09-11T05:33:12.223Z,100.0
2017-09-11T05:34:13.705Z,100.0
2017-09-11T05:35:15.104Z,100.0
2017-09-11T05:36:16.582Z,100.0
2017-09-11T05:37:17.985Z,100.0
2017-09-11T05:38:19.463Z,100.0
2017-09-11T05:39:20.865Z,100.0
2017-09-11T05:40:22.269Z,100.0
2017-09-11T05:41:23.784Z,100.0
2017-09-11T05:42:25.187Z,100.0
2017-09-11T05:43:26.589Z,100.0
2017-09-11T05:44:28.382Z,100.0
2017-09-11T05:45:29.785Z,100.0
2017-09-11T05:46:31.293Z,100.0
2017-09-11T05:47:32.695Z,100.0
2017-09-11T05:48:34.099Z,100.0
2017-09-11T05:49:35.614Z,100.0
2017-09-11T05:50:37.016Z,100.0
2017-09-11T05:51:38.416Z,100.0
2017-09-11T05:52:39.840Z,100.0
2017-09-11T05:53:41.235Z,100.0
2017-09-11T05:54:42.637Z,100.0
2017-09-11T05:55:45.101Z,100.0
2017-09-11T05:56:46.506Z,100.0
2017-09-11T05:57:47.956Z,100.0
2017-09-11T05:58:49.355Z,100.0
2017-09-11T05:59:50.763Z,100.0
2017-09-11T06:00:52.287Z,100.0
2017-09-11T06:01:53.711Z,100.0
2017-09-11T06:02:55.100Z,100.0
2017-09-11T06:03:56.979Z,100.0
2017-09-11T06:04:58.396Z,100.0
2017-09-11T06:05:59.801Z,100.0
2017-09-11T06:07:01.237Z,100.0
2017-09-11T06:08:02.641Z,100.0
2017-09-11T06:09:04.045Z,100.0
2017-09-11T06:10:05.548Z,100.0
2017-09-11T06:11:06.954Z,100.0
2017-09-11T06:12:08.368Z,100.0
2017-09-11T06:13:09.762Z,100.0
2017-09-11T06:14:11.166Z,100.0
2017-09-11T06:15:12.573Z,100.0
2017-09-11T06:16:13.976Z,100.0
2017-09-11T06:17:15.379Z,100.0
2017-09-11T06:18:16.792Z,100.0
2017-09-11T06:19:18.197Z,100.0
2017-09-11T06:20:19.597Z,100.0
2017-09-11T06:21:21.009Z,100.0
2017-09-11T06:22:22.408Z,100.0
2017-09-11T06:23:23.809Z,100.0
2017-09-11T06:24:25.225Z,100.0
2017-09-11T06:25:26.626Z,100.0
2017-09-11T06:26:28.029Z,100.0
2017-09-11T06:27:29.438Z,100.0
2017-09-11T06:28:30.843Z,100.0
2017-09-11T06:29:32.241Z,100.0
2017-09-11T06:30:33.662Z,100.0
2017-09-11T06:31:35.063Z,100.0
2017-09-11T06:32:36.526Z,100.0
2017-09-11T06:33:38.306Z,100.0
2017-09-11T06:34:39.717Z,100.0
2017-09-11T06:35:41.124Z,100.0
2017-09-11T06:36:42.528Z,100.0
2017-09-11T06:37:43.957Z,100.0
2017-09-11T06:38:45.355Z,100.0
2017-09-11T06:39:46.801Z,100.0
2017-09-11T06:40:48.202Z,100.0
2017-09-11T06:41:49.990Z,100.0
2017-09-11T06:42:51.396Z,100.0
2017-09-11T06:43:52.801Z,100.0
2017-09-11T06:44:54.220Z,100.0
2017-09-11T06:45:55.617Z,100.0
2017-09-11T06:46:57.028Z,100.0
2017-09-11T06:47:58.431Z,100.0
2017-09-11T06:48:59.852Z,100.0
2017-09-11T06:50:02.302Z,100.0
2017-09-11T06:51:03.717Z,100.0
2017-09-11T06:52:05.507Z,100.0
2017-09-11T06:53:06.916Z,100.0
2017-09-11T06:54:08.324Z,100.0
2017-09-11T06:55:09.731Z,100.0
2017-09-11T06:56:11.133Z,100.0
2017-09-11T06:57:12.551Z,100.0
2017-09-11T06:58:13.951Z,100.0
2017-09-11T06:59:15.357Z,100.0
2017-09-11T07:00:16.788Z,100.0
2017-09-11T07:01:18.202Z,100.0
2017-09-11T07:02:19.608Z,100.0
2017-09-11T07:03:21.017Z,100.0
2017-09-11T07:04:22.451Z,100.0
2017-09-11T07:05:23.838Z,100.0
2017-09-11T07:06:25.268Z,100.0
2017-09-11T07:07:26.677Z,100.0
2017-09-11T07:08:28.091Z,100.0
2017-09-11T07:09:29.499Z,100.0
2017-09-11T07:10:30.897Z,100.0
2017-09-11T07:11:32.308Z,100.0
2017-09-11T07:12:33.709Z,100.0
2017-09-11T07:13:35.119Z,100.0
2017-09-11T07:14:36.522Z,100.0
2017-09-11T07:15:37.920Z,100.0
2017-09-11T07:16:39.295Z,100.0
2017-09-11T07:17:40.697Z,100.0
2017-09-11T07:18:42.103Z,100.0
2017-09-11T07:19:43.514Z,100.0
2017-09-11T07:20:44.919Z,100.0
2017-09-11T07:21:46.322Z,100.0
2017-09-11T07:22:47.735Z,100.0
2017-09-11T07:23:49.521Z,100.0
2017-09-11T07:24:50.942Z,100.0
2017-09-11T07:25:52.377Z,100.0
2017-09-11T07:26:53.793Z,100.0
2017-09-11T07:27:55.201Z,100.0
2017-09-11T07:28:56.708Z,100.0
2017-09-11T07:29:58.099Z,100.0
2017-09-11T07:30:59.522Z,100.0
2017-09-11T07:32:00.933Z,100.0
2017-09-11T07:33:02.341Z,100.0
2017-09-11T07:34:03.753Z,100.0
2017-09-11T07:35:05.537Z,100.0
2017-09-11T07:36:06.943Z,100.0
2017-09-11T07:37:08.355Z,100.0
2017-09-11T07:38:09.753Z,100.0
2017-09-11T07:39:11.156Z,100.0
2017-09-11T07:40:12.562Z,100.0
2017-09-11T07:41:13.984Z,100.0
2017-09-11T07:42:15.381Z,100.0
2017-09-11T07:43:16.803Z,100.0
2017-09-11T07:44:18.214Z,100.0
2017-09-11T07:45:19.610Z,100.0
2017-09-11T07:46:21.025Z,100.0
2017-09-11T07:47:22.426Z,100.0
2017-09-11T07:48:23.844Z,100.0
2017-09-11T07:49:25.266Z,100.0
2017-09-11T07:50:26.676Z,100.0
2017-09-11T07:51:28.082Z,100.0
2017-09-11T07:52:29.496Z,100.0
2017-09-11T07:53:30.899Z,100.0
2017-09-11T07:54:32.307Z,100.0
2017-09-11T07:55:33.718Z,100.0
2017-09-11T07:56:35.124Z,100.0
2017-09-11T07:57:36.537Z,100.0
2017-09-11T07:58:37.997Z,100.0
2017-09-11T07:59:39.408Z,100.0
2017-09-11T08:00:40.812Z,100.0
2017-09-11T08:01:42.216Z,100.0
2017-09-11T08:02:43.631Z,100.0
2017-09-11T08:03:45.036Z,100.0
2017-09-11T08:04:46.441Z,100.0
2017-09-11T08:05:47.850Z,100.0
2017-09-11T08:06:49.285Z,100.0
2017-09-11T08:07:50.688Z,100.0
2017-09-11T08:08:52.100Z,100.0
2017-09-11T08:09:53.500Z,100.0
2017-09-11T08:10:54.908Z,100.0
2017-09-11T08:11:56.332Z,100.0
2017-09-11T08:12:57.753Z,100.0
2017-09-11T08:13:59.159Z,100.0
2017-09-11T08:15:00.571Z,100.0
2017-09-11T08:16:01.978Z,100.0
2017-09-11T08:17:03.391Z,100.0
2017-09-11T08:18:04.799Z,100.0
2017-09-11T08:19:06.211Z,100.0
2017-09-11T08:20:07.618Z,100.0
2017-09-11T08:21:09.021Z,100.0
2017-09-11T08:22:10.429Z,100.0
2017-09-11T08:23:11.833Z,100.0
2017-09-11T08:24:13.241Z,100.0
2017-09-11T08:25:14.648Z,100.0
2017-09-11T08:26:16.054Z,100.0
2017-09-11T08:27:17.470Z,100.0
2017-09-11T08:28:18.873Z,100.0
2017-09-11T08:29:20.290Z,100.0
2017-09-11T08:30:21.695Z,100.0
2017-09-11T08:31:23.105Z,100.0
2017-09-11T08:32:24.509Z,100.0
2017-09-11T08:33:25.934Z,100.0
2017-09-11T08:34:27.332Z,100.0
2017-09-11T08:35:28.741Z,100.0
2017-09-11T08:36:30.146Z,100.0
2017-09-11T08:37:31.555Z,100.0
2017-09-11T08:38:32.961Z,100.0
2017-09-11T08:39:34.368Z,100.0
2017-09-11T08:40:35.775Z,100.0
2017-09-11T08:41:37.185Z,99.6
2017-09-11T08:42:38.591Z,100.0
2017-09-11T08:43:40.000Z,100.0
2017-09-11T08:44:41.420Z,99.7
2017-09-11T08:45:42.832Z,98.5
2017-09-11T08:46:44.259Z,98.4
2017-09-11T08:47:45.665Z,98.4
2017-09-11T08:48:47.077Z,98.7
2017-09-11T08:49:48.485Z,97.1
2017-09-11T08:50:49.890Z,96.8
2017-09-11T08:51:51.301Z,95.0
2017-09-11T08:52:52.708Z,94.5
2017-09-11T08:53:54.125Z,93.4
2017-09-11T08:54:55.536Z,93.8
2017-09-11T08:55:57.227Z,92.7
2017-09-11T08:56:58.638Z,91.3
2017-09-11T08:58:00.042Z,91.6
2017-09-11T08:59:01.442Z,91.9
2017-09-11T09:00:02.871Z,92.7
2017-09-11T09:01:04.661Z,93.5
2017-09-11T09:02:06.075Z,94.2
2017-09-11T09:03:07.489Z,92.2
2017-09-11T09:04:08.895Z,91.0
2017-09-11T09:05:10.349Z,91.6
2017-09-11T09:06:11.755Z,90.7
2017-09-11T09:07:13.539Z,89.4
2017-09-11T09:08:14.955Z,89.6
2017-09-11T09:09:16.362Z,89.5
2017-09-11T09:10:17.770Z,89.0
2017-09-11T09:11:19.179Z,89.5
2017-09-11T09:12:20.966Z,89.2
2017-09-11T09:13:22.378Z,88.6
2017-09-11T09:14:23.782Z,89.2
2017-09-11T09:15:25.196Z,87.6
2017-09-11T09:16:26.601Z,87.7
2017-09-11T09:17:28.017Z,87.6
2017-09-11T09:18:29.803Z,89.0
2017-09-11T09:19:31.210Z,89.0
2017-09-11T09:20:32.614Z,88.2
2017-09-11T09:21:34.021Z,88.0
2017-09-11T09:22:35.432Z,83.4
2017-09-11T09:23:36.840Z,85.0
2017-09-11T09:24:38.257Z,86.5
2017-09-11T09:25:39.668Z,87.4
2017-09-11T09:26:41.073Z,87.1
2017-09-11T09:27:42.491Z,86.7
2017-09-11T09:28:43.908Z,87.3
2017-09-11T09:29:45.314Z,85.9
2017-09-11T09:30:46.753Z,86.6
2017-09-11T09:31:48.168Z,86.1
2017-09-11T09:32:49.576Z,84.2
2017-09-11T09:33:50.979Z,85.1
2017-09-11T09:34:52.390Z,85.7
2017-09-11T09:35:53.813Z,85.4
2017-09-11T09:36:55.246Z,84.9
2017-09-11T09:37:56.653Z,84.1
2017-09-11T09:38:58.068Z,83.9
2017-09-11T09:39:59.477Z,83.7
2017-09-11T09:41:00.880Z,83.8
2017-09-11T09:42:02.288Z,80.2
2017-09-11T09:43:03.695Z,80.8
2017-09-11T09:44:05.108Z,82.1
2017-09-11T09:45:06.514Z,81.9
2017-09-11T09:46:07.975Z,79.1
2017-09-11T09:47:09.392Z,79.6
2017-09-11T09:48:10.801Z,81.0
2017-09-11T09:49:12.216Z,79.5
2017-09-11T09:50:13.621Z,80.2
2017-09-11T09:51:15.022Z,79.8
2017-09-11T09:52:16.440Z,81.1
2017-09-11T09:53:17.849Z,81.1
2017-09-11T09:54:19.259Z,81.8
2017-09-11T09:55:20.661Z,81.9
2017-09-11T09:56:22.073Z,82.1
2017-09-11T09:57:23.479Z,78.2
2017-09-11T09:58:24.888Z,78.9
2017-09-11T09:59:26.668Z,78.2
2017-09-11T10:00:28.083Z,79.1
2017-09-11T10:01:29.489Z,78.4
2017-09-11T10:02:30.908Z,76.8
2017-09-11T10:03:32.320Z,78.4
2017-09-11T10:04:33.726Z,77.8
2017-09-11T10:05:35.138Z,76.9
2017-09-11T10:06:36.549Z,78.1
2017-09-11T10:07:37.958Z,78.6
2017-09-11T10:08:39.367Z,78.3
2017-09-11T10:09:40.770Z,78.6
2017-09-11T10:10:42.186Z,78.8
2017-09-11T10:11:44.758Z,79.6
2017-09-11T10:12:46.160Z,81.0
2017-09-11T10:13:47.568Z,81.7
2017-09-11T10:14:49.053Z,81.4
2017-09-11T10:15:50.456Z,80.3
2017-09-11T10:16:58.751Z,80.9
2017-09-11T10:18:00.256Z,81.1
2017-09-11T10:19:01.666Z,80.6
2017-09-11T10:20:03.064Z,80.2
2017-09-11T10:21:04.476Z,80.7
2017-09-11T10:22:05.883Z,81.2
2017-09-11T10:23:07.287Z,80.7
2017-09-11T10:24:08.798Z,78.7
2017-09-11T10:25:10.204Z,78.9
2017-09-11T10:26:11.678Z,78.9
2017-09-11T10:27:13.079Z,78.9
2017-09-11T10:28:14.777Z,76.5
2017-09-11T10:29:16.204Z,75.3
2017-09-11T10:30:17.613Z,75.1
2017-09-11T10:31:19.019Z,76.1
2017-09-11T10:32:20.912Z,74.3
2017-09-11T10:33:22.317Z,74.5
2017-09-11T10:34:24.585Z,73.3
2017-09-11T10:35:25.991Z,74.2
2017-09-11T10:36:27.412Z,74.5
2017-09-11T10:37:28.848Z,73.4
2017-09-11T10:38:30.292Z,71.9
2017-09-11T10:39:31.697Z,72.4
2017-09-11T10:40:33.583Z,72.1
2017-09-11T10:41:34.989Z,70.5
2017-09-11T10:42:36.788Z,70.7
2017-09-11T10:43:38.212Z,71.8
2017-09-11T10:44:39.622Z,69.7
2017-09-11T10:45:41.027Z,69.6
2017-09-11T10:46:42.536Z,70.2
2017-09-11T10:47:43.944Z,70.3
2017-09-11T10:48:45.351Z,70.5
2017-09-11T10:49:46.853Z,68.5
2017-09-11T10:50:48.291Z,67.3
2017-09-11T10:51:49.696Z,67.0
2017-09-11T10:52:51.180Z,67.3
2017-09-11T10:53:52.588Z,68.5
2017-09-11T10:54:53.995Z,65.5
2017-09-11T10:55:55.495Z,65.7
2017-09-11T10:56:56.908Z,65.7
2017-09-11T10:57:58.320Z,65.9
2017-09-11T10:58:59.820Z,63.5
2017-09-11T11:00:01.226Z,63.8
2017-09-11T11:01:02.698Z,63.0
2017-09-11T11:02:04.105Z,63.6
2017-09-11T11:03:05.578Z,62.8
2017-09-11T11:04:06.987Z,61.8
2017-09-11T11:05:08.456Z,60.9
2017-09-11T11:06:09.867Z,61.9
2017-09-11T11:07:11.339Z,61.8
2017-09-11T11:08:12.763Z,60.0
2017-09-11T11:09:14.220Z,60.0
2017-09-11T11:10:15.632Z,57.5
2017-09-11T11:11:17.098Z,56.3
2017-09-11T11:12:18.507Z,56.2
2017-09-11T11:13:19.911Z,55.4
2017-09-11T11:14:21.421Z,56.5
2017-09-11T11:15:22.827Z,57.2
2017-09-11T11:16:24.238Z,57.8
2017-09-11T11:17:25.742Z,55.8
2017-09-11T11:18:27.150Z,58.5
2017-09-11T11:19:28.618Z,61.8
2017-09-11T11:20:30.024Z,62.2
2017-09-11T11:21:31.506Z,61.4
2017-09-11T11:22:32.911Z,63.3
2017-09-11T11:23:34.346Z,64.1
2017-09-11T11:24:35.822Z,65.6
2017-09-11T11:25:37.230Z,65.5
2017-09-11T11:26:38.636Z,67.2
2017-09-11T11:27:40.144Z,66.1
2017-09-11T11:28:41.549Z,65.3
2017-09-11T11:29:43.027Z,66.0
2017-09-11T11:30:44.432Z,65.3
2017-09-11T11:31:45.906Z,66.8
2017-09-11T11:32:47.313Z,67.8
2017-09-11T11:33:48.716Z,68.2
2017-09-11T11:34:50.227Z,68.0
2017-09-11T11:35:51.634Z,68.2
2017-09-11T11:36:53.418Z,67.2
2017-09-11T11:37:54.857Z,66.2
2017-09-11T11:38:56.312Z,64.7
2017-09-11T11:39:57.725Z,61.9
2017-09-11T11:40:59.560Z,60.5
2017-09-11T11:42:00.967Z,60.4
2017-09-11T11:43:02.372Z,59.1
2017-09-11T11:44:03.802Z,59.7
2017-09-11T11:45:05.212Z,60.0
2017-09-11T11:46:06.618Z,60.1
2017-09-11T11:47:08.130Z,59.4
2017-09-11T11:48:09.539Z,59.7
2017-09-11T11:49:10.944Z,61.0
2017-09-11T11:50:12.450Z,59.2
2017-09-11T11:51:13.858Z,61.4
2017-09-11T11:52:15.268Z,62.5
2017-09-11T11:53:16.770Z,61.4
2017-09-11T11:54:18.179Z,61.4
2017-09-11T11:55:19.652Z,60.7
2017-09-11T11:56:21.056Z,60.0
2017-09-11T11:57:22.533Z,59.2
2017-09-11T11:58:23.940Z,58.2
2017-09-11T11:59:25.345Z,57.2
2017-09-11T12:00:26.852Z,55.8
2017-09-11T12:01:28.258Z,55.4
2017-09-11T12:02:29.664Z,53.6
2017-09-11T12:03:31.173Z,53.7
2017-09-11T12:04:32.576Z,55.3
2017-09-11T12:05:33.985Z,55.2
2017-09-11T12:06:46.092Z,53.7
2017-09-11T12:07:47.507Z,55.1
2017-09-11T12:08:48.916Z,57.2
2017-09-11T12:09:50.363Z,59.2
2017-09-11T12:10:51.780Z,59.4
2017-09-11T12:11:53.241Z,60.4
2017-09-11T12:12:54.646Z,61.7
2017-09-11T12:13:56.122Z,60.7
2017-09-11T12:14:57.528Z,61.2
2017-09-11T12:15:59.003Z,63.4
2017-09-11T12:17:00.413Z,63.8
2017-09-11T12:18:01.886Z,64.7
2017-09-11T12:19:03.295Z,65.6
2017-09-11T12:20:04.830Z,65.7
2017-09-11T12:21:06.235Z,65.1
2017-09-11T12:22:07.750Z,65.7
2017-09-11T12:23:09.156Z,65.6
2017-09-11T12:24:10.631Z,66.6
2017-09-11T12:25:12.035Z,65.3
2017-09-11T12:26:13.513Z,63.7
2017-09-11T12:27:14.918Z,64.1
2017-09-11T12:28:16.395Z,63.8
2017-09-11T12:29:17.798Z,64.3
2017-09-11T12:30:19.208Z,65.4
2017-09-11T12:31:20.719Z,64.7
2017-09-11T12:32:22.523Z,65.2
2017-09-11T12:33:23.927Z,64.4
2017-09-11T12:34:25.445Z,65.3
2017-09-11T12:35:26.846Z,65.6
2017-09-11T12:36:28.251Z,66.8
2017-09-11T12:37:29.813Z,66.9
2017-09-11T12:38:31.218Z,66.7
2017-09-11T12:39:32.626Z,67.4
2017-09-11T12:40:34.086Z,67.7
2017-09-11T12:41:35.488Z,68.8
2017-09-11T12:42:36.893Z,68.2
2017-09-11T12:43:39.367Z,68.2
2017-09-11T12:44:40.833Z,69.2
2017-09-11T12:45:42.237Z,69.2
2017-09-11T12:46:43.758Z,70.0
2017-09-11T12:47:45.157Z,70.6
2017-09-11T12:48:46.561Z,71.0
2017-09-11T12:49:48.069Z,69.3
2017-09-11T12:50:49.473Z,69.5
2017-09-11T12:51:50.877Z,68.5
2017-09-11T12:52:52.390Z,68.9
2017-09-11T12:53:53.795Z,68.7
2017-09-11T12:54:55.195Z,67.8
2017-09-11T12:55:56.712Z,68.0
2017-09-11T12:56:58.508Z,68.3
2017-09-11T12:58:00.004Z,67.4
2017-09-11T12:59:01.404Z,65.7
2017-09-11T13:00:02.892Z,66.5
2017-09-11T13:01:04.295Z,68.1
2017-09-11T13:02:06.164Z,68.4
2017-09-11T13:03:07.563Z,66.9
2017-09-11T13:04:09.054Z,66.9
2017-09-11T13:05:10.458Z,68.0
2017-09-11T13:06:11.935Z,69.6
2017-09-11T13:07:13.338Z,70.1
2017-09-11T13:08:14.818Z,70.4
2017-09-11T13:09:16.238Z,70.2
2017-09-11T13:10:17.707Z,69.5
2017-09-11T13:11:19.096Z,70.5
2017-09-11T13:12:20.587Z,69.7
2017-09-11T13:13:21.982Z,69.6
2017-09-11T13:14:23.461Z,69.1
2017-09-11T13:15:24.860Z,68.7
2017-09-11T13:16:26.341Z,69.4
2017-09-11T13:17:27.742Z,69.2
2017-09-11T13:18:29.225Z,68.3
2017-09-11T13:19:30.631Z,67.2
2017-09-11T13:20:32.117Z,68.8
2017-09-11T13:21:33.517Z,69.5
2017-09-11T13:22:34.989Z,69.3
2017-09-11T13:23:36.384Z,70.3
2017-09-11T13:24:37.790Z,71.8